createdAt,value
2023-01-27T00:00:54.166Z,94168.78
2023-01-27T00:03:21.665Z,94161.50
2023-01-27T00:05:48.781Z,94159.50
2023-01-27T00:08:16.281Z,94145.44
2023-01-27T00:10:46.098Z,94152.94
2023-01-27T00:13:27.091Z,94148.13
2023-01-27T00:15:54.142Z,94154.53
2023-01-27T00:18:21.079Z,94156.34
2023-01-27T00:21:06.423Z,94152.38
2023-01-27T00:23:51.657Z,94131.56
2023-01-27T00:26:19.283Z,94079.25
2023-01-27T00:28:47.537Z,94116.00
2023-01-27T00:31:35.284Z,94137.31
2023-01-27T00:34:02.267Z,94121.44
2023-01-27T00:36:30.299Z,94134.75
2023-01-27T00:38:57.490Z,94100.09
2023-01-27T00:41:24.271Z,94111.28
2023-01-27T00:43:52.908Z,94119.53
2023-01-27T00:46:21.942Z,94134.66
2023-01-27T00:48:48.996Z,94117.91
2023-01-27T00:51:16.143Z,94143.06
2023-01-27T00:53:42.731Z,94137.13
2023-01-27T00:56:09.792Z,94122.00
2023-01-27T00:58:36.835Z,94120.59
2023-01-27T01:01:06.501Z,94131.63
2023-01-27T01:03:34.940Z,94128.38
2023-01-27T01:06:04.501Z,94137.97
2023-01-27T01:08:33.009Z,94127.16
2023-01-27T01:10:59.861Z,94128.66
2023-01-27T01:13:30.041Z,94121.03
2023-01-27T01:15:57.371Z,94137.13
2023-01-27T01:18:24.641Z,94130.59
2023-01-27T01:20:51.259Z,94126.66
2023-01-27T01:23:18.110Z,94139.59
2023-01-27T01:25:53.515Z,94120.69
2023-01-27T01:28:20.551Z,94133.00
2023-01-27T01:30:47.596Z,94142.34
2023-01-27T01:33:14.398Z,94114.13
2023-01-27T01:35:41.002Z,94115.56
2023-01-27T01:38:07.621Z,94140.31
2023-01-27T01:40:34.353Z,94132.41
2023-01-27T01:43:11.479Z,94150.38
2023-01-27T01:45:39.751Z,94150.38
2023-01-27T01:48:11.164Z,94129.00
2023-01-27T01:50:41.175Z,94145.50
2023-01-27T01:53:09.738Z,94146.53
2023-01-27T01:55:39.141Z,94130.97
2023-01-27T01:58:08.340Z,94134.31
2023-01-27T02:00:35.197Z,94122.44
2023-01-27T02:03:03.638Z,94132.91
2023-01-27T02:05:34.733Z,94125.28
2023-01-27T02:08:09.519Z,94104.72
2023-01-27T02:10:36.319Z,94111.59
2023-01-27T02:13:02.949Z,94096.22
2023-01-27T02:15:30.982Z,94099.03
2023-01-27T02:17:59.279Z,94058.72
2023-01-27T02:20:37.952Z,94086.06
2023-01-27T02:23:31.426Z,94065.25
2023-01-27T02:26:19.345Z,94079.59
2023-01-27T02:28:52.034Z,94064.28
2023-01-27T02:31:18.756Z,94056.78
2023-01-27T02:33:45.392Z,94037.25
2023-01-27T02:36:17.572Z,94074.94
2023-01-27T02:38:45.809Z,94077.81
2023-01-27T02:41:36.877Z,94062.84
2023-01-27T02:44:03.868Z,94050.69
2023-01-27T02:46:30.770Z,94064.78
2023-01-27T02:48:57.501Z,94061.94
2023-01-27T02:51:24.138Z,94073.47
2023-01-27T02:53:50.776Z,94066.91
2023-01-27T02:56:17.475Z,94069.06
2023-01-27T02:58:44.067Z,94078.50
2023-01-27T03:01:10.908Z,94062.75
2023-01-27T03:03:47.249Z,94077.56
2023-01-27T03:06:14.731Z,94075.03
2023-01-27T03:08:41.971Z,94071.22
2023-01-27T03:11:10.000Z,94068.97
2023-01-27T03:13:37.447Z,94071.13
2023-01-27T03:16:24.913Z,94063.22
2023-01-27T03:18:53.718Z,94055.69
2023-01-27T03:21:20.577Z,94050.34
2023-01-27T03:23:49.255Z,94036.41
2023-01-27T03:26:16.418Z,94039.31
2023-01-27T03:28:43.148Z,94025.78
2023-01-27T03:31:20.065Z,94019.47
2023-01-27T03:33:47.744Z,94014.38
2023-01-27T03:36:33.824Z,94041.34
2023-01-27T03:39:19.008Z,94039.50
2023-01-27T03:42:04.124Z,94029.69
2023-01-27T03:44:49.392Z,94030.56
2023-01-27T03:47:15.978Z,94025.22
2023-01-27T03:49:42.535Z,94019.25
2023-01-27T03:52:09.215Z,94015.22
2023-01-27T03:54:35.845Z,94017.38
2023-01-27T03:57:06.227Z,94011.06
2023-01-27T03:59:33.216Z,94014.72
2023-01-27T04:02:20.287Z,94000.72
2023-01-27T04:05:05.339Z,94007.44
2023-01-27T04:07:35.416Z,94013.91
2023-01-27T04:10:03.225Z,94038.34
2023-01-27T04:12:29.777Z,94041.34
2023-01-27T04:14:56.439Z,94029.81
2023-01-27T04:17:23.092Z,94044.03
2023-01-27T04:19:49.769Z,94066.16
2023-01-27T04:22:16.721Z,94082.91
2023-01-27T04:24:43.664Z,94057.22
2023-01-27T04:27:12.669Z,94077.41
2023-01-27T04:29:41.343Z,94069.38
2023-01-27T04:32:12.668Z,94078.41
2023-01-27T04:34:39.723Z,94089.19
2023-01-27T04:37:08.821Z,94093.47
2023-01-27T04:39:35.778Z,94099.38
2023-01-27T04:42:02.518Z,94104.66
2023-01-27T04:44:29.181Z,94102.47
2023-01-27T04:46:55.847Z,94095.03
2023-01-27T04:49:22.575Z,94106.66
2023-01-27T04:51:49.269Z,94116.28
2023-01-27T04:54:16.023Z,94106.66
2023-01-27T04:56:55.624Z,94099.50
2023-01-27T04:59:22.363Z,94110.97
2023-01-27T05:01:49.118Z,94127.88
2023-01-27T05:04:15.765Z,94102.94
2023-01-27T05:06:42.405Z,94080.88
2023-01-27T05:09:09.104Z,94089.75
2023-01-27T05:11:35.763Z,94107.41
2023-01-27T05:14:02.347Z,94088.94
2023-01-27T05:16:29.003Z,94111.19
2023-01-27T05:18:56.437Z,94111.72
2023-01-27T05:21:28.464Z,94102.19
2023-01-27T05:23:55.196Z,94106.38
2023-01-27T05:26:26.896Z,94095.75
2023-01-27T05:28:56.821Z,94100.06
2023-01-27T05:31:28.713Z,94090.25
2023-01-27T05:33:56.766Z,94100.47
2023-01-27T05:36:24.957Z,94085.47
2023-01-27T05:38:52.378Z,94068.19
2023-01-27T05:41:19.986Z,94068.13
2023-01-27T05:43:51.012Z,94060.00
2023-01-27T05:46:22.199Z,94070.59
2023-01-27T05:48:51.173Z,94082.19
2023-01-27T05:51:19.761Z,94061.72
2023-01-27T05:53:46.683Z,94035.88
2023-01-27T05:56:15.841Z,94064.81
2023-01-27T05:58:42.687Z,94067.44
2023-01-27T06:01:16.790Z,94073.47
2023-01-27T06:03:44.429Z,94084.81
2023-01-27T06:06:12.667Z,94092.78
2023-01-27T06:08:39.876Z,94090.38
2023-01-27T06:11:07.250Z,94106.06
2023-01-27T06:13:35.889Z,94095.94
2023-01-27T06:16:03.941Z,94084.59
2023-01-27T06:18:30.623Z,94094.13
2023-01-27T06:21:01.509Z,94081.00
2023-01-27T06:23:28.586Z,94054.16
2023-01-27T06:25:56.250Z,94092.06
2023-01-27T06:28:29.144Z,94099.38
2023-01-27T06:30:57.272Z,94069.03
2023-01-27T06:33:24.051Z,94081.47
2023-01-27T06:35:50.802Z,94094.97
2023-01-27T06:38:17.440Z,94072.22
2023-01-27T06:40:44.382Z,94105.00
2023-01-27T06:43:13.921Z,94100.03
2023-01-27T06:45:40.781Z,94100.00
2023-01-27T06:48:08.697Z,94111.84
2023-01-27T06:50:36.763Z,94120.09
2023-01-27T06:53:07.307Z,94110.13
2023-01-27T06:55:36.066Z,94104.78
2023-01-27T06:58:03.013Z,94106.44
2023-01-27T07:00:29.997Z,94092.03
2023-01-27T07:02:56.882Z,94110.19
2023-01-27T07:05:23.759Z,94098.97
2023-01-27T07:07:50.412Z,94110.22
2023-01-27T07:10:17.330Z,94105.06
2023-01-27T07:12:43.950Z,94113.41
2023-01-27T07:15:11.444Z,94106.91
2023-01-27T07:17:38.308Z,94120.78
2023-01-27T07:20:06.835Z,94109.25
2023-01-27T07:22:33.577Z,94122.47
2023-01-27T07:25:00.221Z,94097.69
2023-01-27T07:27:26.772Z,94114.44
2023-01-27T07:29:54.119Z,94102.47
2023-01-27T07:32:21.178Z,94123.09
2023-01-27T07:34:47.879Z,94107.09
2023-01-27T07:37:14.675Z,94126.19
2023-01-27T07:39:41.289Z,94127.28
2023-01-27T07:42:10.376Z,94121.38
2023-01-27T07:44:37.061Z,94114.84
2023-01-27T07:47:03.906Z,94123.75
2023-01-27T07:49:30.491Z,94135.41
2023-01-27T07:51:57.212Z,94088.56
2023-01-27T07:54:25.370Z,94128.44
2023-01-27T07:56:52.036Z,94129.06
2023-01-27T07:59:18.599Z,94100.50
2023-01-27T08:01:48.055Z,94130.72
2023-01-27T08:04:14.869Z,94125.03
2023-01-27T08:06:41.612Z,94128.00
2023-01-27T08:09:08.242Z,94130.84
2023-01-27T08:11:34.989Z,94118.13
2023-01-27T08:14:04.233Z,94122.84
2023-01-27T08:16:31.105Z,94117.75
2023-01-27T08:18:57.849Z,94105.69
2023-01-27T08:21:25.431Z,94123.88
2023-01-27T08:23:53.790Z,94120.44
2023-01-27T08:26:20.583Z,94120.25
2023-01-27T08:28:47.355Z,94113.31
2023-01-27T08:31:16.346Z,94122.38
2023-01-27T08:33:45.106Z,94134.13
2023-01-27T08:36:14.468Z,94117.41
2023-01-27T08:38:42.487Z,94133.28
2023-01-27T08:41:14.390Z,94135.22
2023-01-27T08:43:41.307Z,94140.31
2023-01-27T08:46:08.361Z,94131.53
2023-01-27T08:48:35.570Z,94146.00
2023-01-27T08:51:03.293Z,94116.81
2023-01-27T08:53:30.686Z,94106.22
2023-01-27T08:55:59.491Z,94136.66
2023-01-27T08:58:26.200Z,94132.16
2023-01-27T09:00:52.932Z,94110.94
2023-01-27T09:03:20.068Z,94134.81
2023-01-27T09:05:47.754Z,94139.22
2023-01-27T09:08:15.982Z,94116.66
2023-01-27T09:10:43.787Z,94131.09
2023-01-27T09:13:10.596Z,94138.69
2023-01-27T09:15:38.134Z,94132.63
2023-01-27T09:18:06.643Z,94106.88
2023-01-27T09:20:34.611Z,94125.50
2023-01-27T09:23:01.327Z,94118.75
2023-01-27T09:25:27.987Z,94128.84
2023-01-27T09:27:59.255Z,94119.78
2023-01-27T09:30:27.992Z,94132.06
2023-01-27T09:33:00.161Z,94106.09
2023-01-27T09:35:33.835Z,94125.06
2023-01-27T09:38:00.554Z,94097.16
2023-01-27T09:40:59.512Z,94105.19
2023-01-27T09:43:48.061Z,94109.75
2023-01-27T09:46:46.368Z,94101.97
2023-01-27T09:49:22.179Z,94107.88
2023-01-27T09:52:10.450Z,94098.69
2023-01-27T09:54:52.274Z,94076.66
2023-01-27T09:57:45.038Z,94089.34
2023-01-27T10:00:20.913Z,94098.69
2023-01-27T10:02:59.848Z,94090.72
2023-01-27T10:05:39.226Z,94077.88
2023-01-27T10:08:29.566Z,94074.97
2023-01-27T10:11:02.397Z,94072.56
2023-01-27T10:13:53.473Z,94073.94
2023-01-27T10:16:36.095Z,94066.00
2023-01-27T10:19:10.629Z,94056.47
2023-01-27T10:21:59.612Z,94060.19
2023-01-27T10:24:29.282Z,94068.47
2023-01-27T10:27:07.724Z,94065.47
2023-01-27T10:29:43.612Z,94057.41
2023-01-27T10:32:19.837Z,94067.84
2023-01-27T10:35:21.232Z,94042.31
2023-01-27T10:38:02.645Z,94053.63
2023-01-27T10:40:41.054Z,94059.44
2023-01-27T10:43:38.266Z,94065.56
2023-01-27T10:46:11.230Z,94070.94
2023-01-27T10:48:48.241Z,94069.50
2023-01-27T10:51:37.502Z,94069.19
2023-01-27T10:54:12.424Z,94059.03
2023-01-27T10:56:46.546Z,94051.66
2023-01-27T11:00:10.928Z,94014.31
2023-01-27T11:02:49.698Z,94050.56
2023-01-27T11:05:22.384Z,94059.53
2023-01-27T11:08:03.828Z,94054.25
2023-01-27T11:10:36.617Z,94056.66
2023-01-27T11:13:05.335Z,94048.78
2023-01-27T11:15:35.069Z,94050.28
2023-01-27T11:18:08.676Z,94057.84
2023-01-27T11:20:49.081Z,94059.78
2023-01-27T11:23:18.161Z,94056.81
2023-01-27T11:25:47.745Z,94040.50
2023-01-27T11:28:20.408Z,94052.25
2023-01-27T11:30:54.384Z,94036.88
2023-01-27T11:33:37.127Z,94023.66
2023-01-27T11:36:04.148Z,94032.19
2023-01-27T11:38:30.754Z,94038.56
2023-01-27T11:40:57.911Z,94037.63
2023-01-27T11:43:26.737Z,94001.25
2023-01-27T11:46:04.870Z,93998.28
2023-01-27T11:48:48.848Z,94018.81
2023-01-27T11:51:21.506Z,94042.69
2023-01-27T11:54:26.698Z,94043.47
2023-01-27T11:56:53.514Z,94018.88
2023-01-27T11:59:24.529Z,94040.31
2023-01-27T12:01:55.923Z,94031.66
2023-01-27T12:04:45.280Z,94032.59
2023-01-27T12:07:29.454Z,94030.66
2023-01-27T12:09:56.118Z,94024.66
2023-01-27T12:12:27.335Z,93994.44
2023-01-27T12:15:00.659Z,94036.03
2023-01-27T12:17:40.611Z,94029.31
2023-01-27T12:20:26.481Z,94027.66
2023-01-27T12:22:55.378Z,94029.66
2023-01-27T12:25:27.944Z,94037.06
2023-01-27T12:28:03.993Z,94035.69
2023-01-27T12:30:34.536Z,94021.97
2023-01-27T12:33:13.077Z,94036.31
2023-01-27T12:35:39.999Z,94026.94
2023-01-27T12:38:24.649Z,94032.75
2023-01-27T12:41:03.891Z,94023.56
2023-01-27T12:43:30.732Z,94035.22
2023-01-27T12:46:03.247Z,94024.09
2023-01-27T12:48:36.706Z,94034.94
2023-01-27T12:51:16.028Z,94029.28
2023-01-27T12:53:45.725Z,94032.28
2023-01-27T12:56:17.790Z,94032.31
2023-01-27T12:58:45.994Z,94018.69
2023-01-27T13:01:31.383Z,94037.44
2023-01-27T13:04:00.182Z,94025.72
2023-01-27T13:06:49.697Z,94023.38
2023-01-27T13:09:36.412Z,94022.47
2023-01-27T13:12:15.633Z,94012.38
2023-01-27T13:14:43.723Z,94028.91
2023-01-27T13:17:35.972Z,94012.13
2023-01-27T13:20:08.484Z,94022.69
2023-01-27T13:22:43.773Z,94015.91
2023-01-27T13:25:21.349Z,94016.25
2023-01-27T13:27:50.959Z,94022.78
2023-01-27T13:30:38.054Z,94032.34
2023-01-27T13:33:41.233Z,94030.66
2023-01-27T13:36:15.968Z,94028.13
2023-01-27T13:38:49.249Z,94035.16
2023-01-27T13:41:25.141Z,93979.88
2023-01-27T13:44:01.600Z,94009.94
2023-01-27T13:46:33.189Z,93989.16
2023-01-27T13:49:29.261Z,93995.13
2023-01-27T13:51:56.053Z,94027.34
2023-01-27T13:54:23.915Z,94043.19
2023-01-27T13:57:23.693Z,93941.00
2023-01-27T14:00:24.044Z,94040.13
2023-01-27T14:03:12.001Z,94042.81
2023-01-27T14:06:00.167Z,94046.75
2023-01-27T14:08:56.737Z,94040.53
2023-01-27T14:11:35.227Z,94047.63
2023-01-27T14:14:29.688Z,94054.78
2023-01-27T14:17:15.214Z,94046.28
2023-01-27T14:19:48.099Z,94050.88
2023-01-27T14:22:43.881Z,94052.53
2023-01-27T14:25:23.768Z,94055.22
2023-01-27T14:28:37.601Z,94051.34
2023-01-27T14:31:14.763Z,94047.78
2023-01-27T14:34:18.820Z,94059.53
2023-01-27T14:36:57.867Z,94065.31
2023-01-27T14:40:07.581Z,94075.06
2023-01-27T14:43:15.742Z,94075.94
2023-01-27T14:46:03.519Z,94051.09
2023-01-27T14:48:30.170Z,94088.09
2023-01-27T14:50:59.709Z,94071.34
2023-01-27T14:53:33.270Z,94036.53
2023-01-27T14:56:02.815Z,94085.16
2023-01-27T14:58:41.731Z,94089.09
2023-01-27T15:01:16.963Z,94088.03
2023-01-27T15:04:10.241Z,94096.91
2023-01-27T15:06:49.685Z,94097.13
2023-01-27T15:09:34.175Z,94100.25
2023-01-27T15:12:06.740Z,94105.97
2023-01-27T15:15:04.520Z,94106.03
2023-01-27T15:18:04.014Z,94105.63
2023-01-27T15:20:51.829Z,94104.53
2023-01-27T15:23:37.056Z,94108.44
2023-01-27T15:26:07.800Z,94107.22
2023-01-27T15:28:40.054Z,94122.94
2023-01-27T15:31:06.915Z,94123.00
2023-01-27T15:33:46.017Z,94118.34
2023-01-27T15:36:34.418Z,94118.06
2023-01-27T15:39:09.902Z,94120.47
2023-01-27T15:41:52.407Z,94116.31
2023-01-27T15:44:26.019Z,94125.28
2023-01-27T15:46:54.823Z,94116.41
2023-01-27T15:49:28.530Z,94125.75
2023-01-27T15:52:09.423Z,94107.25
2023-01-27T15:54:41.091Z,94094.00
2023-01-27T15:57:25.315Z,94114.00
2023-01-27T15:59:59.232Z,94104.03
2023-01-27T16:02:31.420Z,94137.31
2023-01-27T16:05:24.506Z,94145.66
2023-01-27T16:07:54.993Z,94100.38
2023-01-27T16:10:24.497Z,94126.91
2023-01-27T16:13:11.152Z,94142.97
2023-01-27T16:15:39.024Z,94142.22
2023-01-27T16:18:08.497Z,94157.56
2023-01-27T16:20:49.070Z,94165.19
2023-01-27T16:23:49.850Z,94163.13
2023-01-27T16:27:01.338Z,94169.31
2023-01-27T16:29:48.418Z,94166.78
2023-01-27T16:32:18.505Z,94165.25
2023-01-27T16:35:02.204Z,94172.88
2023-01-27T16:37:43.141Z,94172.47
2023-01-27T16:40:22.185Z,94173.91
2023-01-27T16:43:18.266Z,94171.63
2023-01-27T16:45:51.126Z,94152.13
2023-01-27T16:48:39.265Z,94175.59
2023-01-27T16:51:14.550Z,94174.69
2023-01-27T16:53:49.729Z,94171.28
2023-01-27T16:56:21.437Z,94168.94
2023-01-27T16:58:50.977Z,94170.66
2023-01-27T17:01:31.119Z,94176.03
2023-01-27T17:04:07.583Z,94176.66
2023-01-27T17:06:37.935Z,94157.28
2023-01-27T17:09:20.456Z,94146.72
2023-01-27T17:11:47.404Z,94181.69
2023-01-27T17:14:28.481Z,94176.03
2023-01-27T17:16:59.802Z,94165.25
2023-01-27T17:19:37.084Z,94191.34
2023-01-27T17:22:26.160Z,94191.56
2023-01-27T17:24:55.022Z,94162.81
2023-01-27T17:27:26.662Z,94190.13
2023-01-27T17:30:00.865Z,94185.53
2023-01-27T17:32:32.925Z,94192.59
2023-01-27T17:35:03.316Z,94193.03
2023-01-27T17:37:31.271Z,94194.31
2023-01-27T17:40:00.060Z,94200.78
2023-01-27T17:42:31.178Z,94210.41
2023-01-27T17:45:20.372Z,94197.63
2023-01-27T17:47:47.304Z,94214.03
2023-01-27T17:50:23.210Z,94203.16
2023-01-27T17:52:53.216Z,94218.22
2023-01-27T17:55:25.562Z,94216.84
2023-01-27T17:57:59.474Z,94226.16
2023-01-27T18:00:38.077Z,94203.22
2023-01-27T18:03:25.541Z,94221.47
2023-01-27T18:05:54.604Z,94201.50
2023-01-27T18:08:23.557Z,94234.25
2023-01-27T18:10:51.037Z,94228.41
2023-01-27T18:13:20.695Z,94235.56
2023-01-27T18:15:59.095Z,94230.22
2023-01-27T18:18:31.419Z,94222.63
2023-01-27T18:21:03.975Z,94241.53
2023-01-27T18:23:32.521Z,94245.03
2023-01-27T18:26:10.729Z,94233.97
2023-01-27T18:28:38.687Z,94243.03
2023-01-27T18:31:14.652Z,94238.38
2023-01-27T18:33:43.708Z,94242.16
2023-01-27T18:36:34.829Z,94247.63
2023-01-27T18:39:04.124Z,94243.09
2023-01-27T18:41:37.671Z,94235.06
2023-01-27T18:44:04.503Z,94238.50
2023-01-27T18:46:31.094Z,94196.88
2023-01-27T18:48:59.759Z,94234.44
2023-01-27T18:51:26.436Z,94256.19
2023-01-27T18:53:53.046Z,94257.00
2023-01-27T18:56:19.708Z,94247.78
2023-01-27T18:58:46.339Z,94229.03
2023-01-27T19:01:21.728Z,94247.09
2023-01-27T19:03:51.066Z,94247.16
2023-01-27T19:06:18.166Z,94246.06
2023-01-27T19:08:44.950Z,94260.59
2023-01-27T19:11:15.995Z,94260.00
2023-01-27T19:13:46.464Z,94243.06
2023-01-27T19:16:16.337Z,94233.78
2023-01-27T19:18:44.587Z,94208.09
2023-01-27T19:21:16.596Z,94260.34
2023-01-27T19:23:44.878Z,94255.97
2023-01-27T19:26:17.536Z,94266.31
2023-01-27T19:28:46.761Z,94260.00
2023-01-27T19:31:13.536Z,94260.09
2023-01-27T19:33:43.980Z,94268.03
2023-01-27T19:36:34.931Z,94262.69
2023-01-27T19:39:12.237Z,94262.16
2023-01-27T19:41:38.853Z,94243.97
2023-01-27T19:44:05.590Z,94259.94
2023-01-27T19:46:34.181Z,94236.19
2023-01-27T19:49:01.113Z,94257.81
2023-01-27T19:51:27.852Z,94263.72
2023-01-27T19:53:54.747Z,94267.38
2023-01-27T19:56:23.423Z,94233.47
2023-01-27T19:58:52.641Z,94251.91
2023-01-27T20:01:20.573Z,94272.19
2023-01-27T20:03:47.295Z,94276.41
2023-01-27T20:06:28.354Z,94260.75
2023-01-27T20:08:57.116Z,94270.47
2023-01-27T20:11:37.068Z,94254.16
2023-01-27T20:14:07.901Z,94249.69
2023-01-27T20:16:34.924Z,94280.09
2023-01-27T20:19:02.157Z,94277.72
2023-01-27T20:21:31.500Z,94260.94
2023-01-27T20:23:58.502Z,94259.59
2023-01-27T20:26:25.853Z,94278.75
2023-01-27T20:28:52.844Z,94276.47
2023-01-27T20:31:24.284Z,94268.50
2023-01-27T20:33:51.816Z,94284.44
2023-01-27T20:36:22.133Z,94245.72
2023-01-27T20:38:49.379Z,94288.69
2023-01-27T20:41:22.536Z,94285.69
2023-01-27T20:43:53.997Z,94291.16
2023-01-27T20:46:21.058Z,94284.44
2023-01-27T20:48:47.762Z,94280.09
2023-01-27T20:51:15.857Z,94289.13
2023-01-27T20:53:46.760Z,94295.47
2023-01-27T20:56:15.761Z,94300.38
2023-01-27T20:58:42.745Z,94268.63
2023-01-27T21:01:12.048Z,94307.28
2023-01-27T21:03:39.558Z,94314.00
2023-01-27T21:06:07.753Z,94314.34
2023-01-27T21:08:34.628Z,94312.47
2023-01-27T21:11:02.670Z,94296.56
2023-01-27T21:13:30.053Z,94304.91
2023-01-27T21:15:57.100Z,94315.97
2023-01-27T21:18:24.629Z,94289.53
2023-01-27T21:20:56.320Z,94325.06
2023-01-27T21:23:28.096Z,94313.22
2023-01-27T21:25:55.545Z,94302.56
2023-01-27T21:28:22.498Z,94307.63
2023-01-27T21:30:49.179Z,94251.31
2023-01-27T21:33:17.703Z,94306.75
2023-01-27T21:35:44.365Z,94249.72
2023-01-27T21:38:11.026Z,94253.84
2023-01-27T21:40:40.251Z,94271.63
2023-01-27T21:43:28.164Z,94203.66
2023-01-27T21:45:59.010Z,94326.91
2023-01-27T21:48:25.731Z,94318.75
2023-01-27T21:50:52.597Z,94324.09
2023-01-27T21:53:19.206Z,94327.94
2023-01-27T21:55:45.791Z,94322.31
2023-01-27T21:58:12.371Z,94339.50
2023-01-27T22:00:39.183Z,94338.50
2023-01-27T22:03:05.834Z,94331.81
2023-01-27T22:05:35.813Z,94341.16
2023-01-27T22:08:02.816Z,94343.78
2023-01-27T22:10:30.302Z,94345.34
2023-01-27T22:13:03.553Z,94316.41
2023-01-27T22:15:30.899Z,94339.59
2023-01-27T22:17:58.650Z,94349.47
2023-01-27T22:20:26.031Z,94345.28
2023-01-27T22:22:52.792Z,94338.78
2023-01-27T22:25:19.962Z,94352.53
2023-01-27T22:27:46.815Z,94328.19
2023-01-27T22:30:16.654Z,94347.53
2023-01-27T22:32:44.285Z,94324.28
2023-01-27T22:35:14.376Z,94342.28
2023-01-27T22:37:41.402Z,94328.28
2023-01-27T22:40:08.838Z,94337.91
2023-01-27T22:42:35.606Z,94306.94
2023-01-27T22:45:02.465Z,94359.97
2023-01-27T22:47:29.097Z,94362.88
2023-01-27T22:49:58.424Z,94349.53
2023-01-27T22:52:25.070Z,94361.97
2023-01-27T22:54:51.683Z,94358.91
2023-01-27T22:57:18.415Z,94343.09
2023-01-27T22:59:45.084Z,94265.88
2023-01-27T23:02:11.752Z,94356.22
2023-01-27T23:04:38.417Z,94353.81
2023-01-27T23:07:05.019Z,94348.84
2023-01-27T23:09:31.654Z,94347.44
2023-01-27T23:11:58.407Z,94319.19
2023-01-27T23:14:24.987Z,94355.75
2023-01-27T23:16:53.045Z,94329.03
2023-01-27T23:19:19.936Z,94351.81
2023-01-27T23:21:48.249Z,94354.25
2023-01-27T23:24:15.553Z,94351.13
2023-01-27T23:26:42.195Z,94332.88
2023-01-27T23:29:22.968Z,94343.41
2023-01-27T23:31:50.998Z,94350.53
2023-01-27T23:34:17.719Z,94330.06
2023-01-27T23:36:44.356Z,94342.34
2023-01-27T23:39:14.255Z,94350.91
2023-01-27T23:41:40.988Z,94351.56
2023-01-27T23:44:11.028Z,94341.84
2023-01-27T23:46:38.045Z,94329.97
2023-01-27T23:49:04.798Z,94349.81
2023-01-27T23:51:31.839Z,94351.38
2023-01-27T23:53:58.635Z,94354.41
2023-01-27T23:56:25.296Z,94324.53
2023-01-27T23:58:51.962Z,94321.34
